Time;durP1;ratioP1;P1;durP2;ratioP2;P2;SDS_P1;SDS_P2;PMS_P1;PMS_P2;Temp;Humidity;BMP_temperature;BMP_pressure;BME280_temperature;BME280_humidity;BME280_pressure;Samples;Min_cycle;Max_cycle;Signal;HPM_P1;HPM_P2
2022/03/02 00:04:05;;;;;;;8.25;5.68;;;3.10;46.60;;;1.18;50.39;102546.72;8472292;27;20121;-82
2022/03/02 00:08:27;;;;;;;8.18;5.75;;;3.10;46.70;;;1.35;50.82;102579.53;8494126;27;20039;-82
2022/03/02 00:12:49;;;;;;;8.63;5.45;;;3.20;46.70;;;1.48;50.47;102597.72;8477392;27;20106;-82
2022/03/02 00:17:11;;;;;;;8.18;5.38;;;3.10;46.80;;;1.45;50.71;102592.53;8474211;27;20138;-82
2022/03/02 00:21:33;;;;;;;7.15;4.80;;;3.20;46.80;;;1.39;50.80;102589.03;8475216;27;21054;-82
2022/03/02 00:25:55;;;;;;;10.07;6.25;;;3.20;46.70;;;1.07;50.80;102544.00;8469966;27;20130;-81
2022/03/02 00:30:16;;;;;;;9.40;5.80;;;3.10;46.70;;;1.27;50.54;102582.88;8476358;27;20027;-82
2022/03/02 00:34:38;;;;;;;10.52;5.65;;;3.00;46.70;;;1.13;50.61;102565.50;8453845;27;20106;-82
2022/03/02 00:39:00;;;;;;;9.13;6.20;;;3.00;46.80;;;1.14;50.78;102552.69;8434785;27;20115;-82
2022/03/02 00:43:22;;;;;;;10.07;6.88;;;2.90;46.80;;;1.17;50.81;102564.72;8473086;27;20039;-81
2022/03/02 00:47:44;;;;;;;11.13;6.57;;;3.00;46.80;;;1.23;50.45;102593.97;8473994;27;20127;-82
2022/03/02 00:52:09;;;;;;;13.40;6.00;;;3.00;46.80;;;0.70;50.50;102504.03;8479520;27;20118;-81
2022/03/02 00:56:30;;;;;;;10.33;5.77;;;3.00;46.80;;;1.14;50.57;102573.28;8449883;27;20049;-81
2022/03/02 01:00:53;;;;;;;11.43;6.57;;;3.00;46.90;;;1.02;50.85;102549.94;8441638;27;20114;-82
2022/03/02 01:05:16;;;;;;;9.73;5.88;;;3.00;46.80;;;1.04;50.74;102549.13;8447790;27;20126;-82
2022/03/02 01:09:37;;;;;;;10.93;5.75;;;2.70;46.80;;;1.15;50.84;102562.13;8461433;27;20134;-83
2022/03/02 01:13:59;;;;;;;9.00;5.88;;;2.90;46.90;;;1.00;50.75;102541.31;8462201;27;20118;-82
2022/03/02 01:18:21;;;;;;;10.43;5.72;;;3.20;47.00;;;0.92;50.84;102532.63;8480416;27;20039;-81
2022/03/02 01:22:45;;;;;;;8.70;5.78;;;2.90;46.90;;;1.08;50.89;102556.03;8448888;27;20595;-81
2022/03/02 01:27:07;;;;;;;8.63;5.15;;;2.90;47.20;;;0.90;50.97;102519.78;8476914;27;20126;-81
2022/03/02 01:31:28;;;;;;;6.63;4.80;;;2.80;46.90;;;1.08;51.17;102538.03;8489161;27;20031;-81
2022/03/02 01:35:50;;;;;;;8.45;5.70;;;2.90;47.00;;;0.88;51.12;102516.31;8478673;27;20575;-81
2022/03/02 01:40:12;;;;;;;9.75;5.85;;;2.80;46.90;;;1.03;50.95;102537.09;8468972;27;20114;-80
2022/03/02 01:44:36;;;;;;;9.93;5.45;;;2.80;46.90;;;0.97;50.70;102526.72;8477725;27;20448;-80
2022/03/02 01:48:58;;;;;;;10.80;5.03;;;2.80;47.00;;;0.85;51.18;102509.41;8473560;27;20133;-81
2022/03/02 01:53:19;;;;;;;8.98;5.65;;;2.70;47.00;;;0.80;51.10;102503.34;8458598;27;20439;-81
2022/03/02 01:57:44;;;;;;;10.02;5.75;;;2.70;47.00;;;0.81;51.26;102494.81;8481347;27;20114;-79
2022/03/02 02:02:06;;;;;;;11.23;6.03;;;2.70;47.00;;;0.86;50.90;102492.28;8459802;27;20054;-80
2022/03/02 02:06:29;;;;;;;9.73;5.88;;;2.70;47.00;;;0.96;51.17;102503.56;8448820;27;20120;-80
2022/03/02 02:10:51;;;;;;;8.80;5.40;;;2.70;47.00;;;0.83;51.09;102469.94;8473480;27;20039;-79
2022/03/02 02:15:13;;;;;;;9.23;5.00;;;2.70;47.00;;;0.84;51.17;102473.41;8467123;27;20122;-81
2022/03/02 02:19:35;;;;;;;6.82;5.25;;;2.80;47.20;;;0.88;50.91;102481.16;8458465;27;20126;-80
2022/03/02 02:23:57;;;;;;;7.53;5.35;;;2.70;47.10;;;0.77;51.21;102454.44;8459178;27;20444;-80
2022/03/02 02:28:26;;;;;;;10.48;5.20;;;2.70;47.10;;;0.67;51.02;102450.03;8473234;27;20031;-80
2022/03/02 02:32:48;;;;;;;8.95;4.88;;;2.60;47.20;;;0.68;51.27;102456.06;8485950;27;20122;-80
2022/03/02 02:37:12;;;;;;;7.32;5.00;;;2.40;47.10;;;0.70;51.31;102464.63;8464580;27;20117;-80
2022/03/02 02:41:33;;;;;;;8.82;5.40;;;2.50;47.20;;;0.77;50.90;102476.72;8462074;27;20118;-80
2022/03/02 02:45:55;;;;;;;10.13;5.72;;;2.60;47.30;;;0.61;51.37;102440.53;8467762;27;20126;-80
2022/03/02 02:50:24;;;;;;;8.25;5.45;;;2.50;47.30;;;0.75;51.47;102465.56;8465441;27;20043;-79
2022/03/02 02:54:48;;;;;;;9.73;5.20;;;2.50;47.30;;;0.65;51.17;102447.44;8465765;27;20543;-80
2022/03/02 02:59:09;;;;;;;9.57;5.47;;;2.50;47.40;;;0.70;51.38;102454.34;8480209;27;20572;-80
2022/03/02 03:03:31;;;;;;;10.10;5.72;;;2.50;47.40;;;0.73;51.20;102478.41;8461024;27;20457;-80
2022/03/02 03:07:53;;;;;;;9.65;5.28;;;2.50;47.40;;;0.63;51.54;102445.69;8494938;27;20125;-80
2022/03/02 03:12:15;;;;;;;11.90;5.90;;;2.50;47.40;;;0.65;51.30;102449.16;8468301;27;20121;-80
2022/03/02 03:16:37;;;;;;;8.23;5.65;;;2.40;47.40;;;0.73;51.29;102451.81;8465965;27;20119;-80
2022/03/02 03:20:59;;;;;;;8.80;5.30;;;2.50;47.50;;;0.55;51.44;102424.16;8476369;27;20129;-79
2022/03/02 03:25:21;;;;;;;12.25;5.57;;;2.60;47.50;;;0.60;51.32;102425.09;8457402;27;20110;-79
2022/03/02 03:29:46;;;;;;;8.98;5.65;;;2.60;47.60;;;0.55;51.60;102429.31;8478985;27;20046;-79
2022/03/02 03:34:08;;;;;;;9.53;5.70;;;2.80;47.70;;;0.52;51.61;102419.84;8465304;27;20113;-79
2022/03/02 03:38:30;;;;;;;9.32;5.00;;;2.50;47.60;;;0.58;51.44;102427.63;8474186;28;20177;-80
2022/03/02 03:42:53;;;;;;;11.27;5.88;;;2.50;47.60;;;0.70;51.61;102442.34;8479629;27;20122;-79
2022/03/02 03:47:15;;;;;;;10.55;5.82;;;2.50;47.70;;;0.65;51.23;102426.03;8474192;28;20146;-78
2022/03/02 03:51:37;;;;;;;10.60;5.55;;;2.60;47.70;;;0.42;51.67;102382.88;8466705;28;20114;-81
2022/03/02 03:55:59;;;;;;;11.65;5.85;;;2.60;47.70;;;0.65;51.24;102419.16;8475628;27;20118;-81
2022/03/02 04:00:21;;;;;;;10.23;5.53;;;2.60;47.80;;;0.51;51.84;102389.81;8468141;27;20607;-80
2022/03/02 04:04:42;;;;;;;10.95;5.68;;;2.50;47.70;;;0.70;51.58;102426.06;8491425;28;20118;-80
2022/03/02 04:09:04;;;;;;;11.30;5.90;;;2.60;47.80;;;0.76;51.18;102433.88;8450390;28;20126;-79
2022/03/02 04:13:26;;;;;;;11.07;6.85;;;2.60;47.80;;;0.71;51.56;102417.53;8467858;27;20114;-80
2022/03/02 04:17:48;;;;;;;13.40;7.82;;;2.60;47.80;;;0.69;51.61;102416.63;8464867;28;20436;-80
2022/03/02 04:22:09;;;;;;;17.02;7.45;;;2.50;47.70;;;0.76;51.75;102428.75;8469124;28;20122;-80
2022/03/02 04:26:34;;;;;;;12.98;8.02;;;2.60;47.80;;;0.77;51.50;102433.88;8459531;27;20548;-80
2022/03/02 04:30:56;;;;;;;14.63;8.03;;;2.60;47.90;;;0.65;51.71;102408.03;8469428;28;20058;-80
2022/03/02 04:35:18;;;;;;;14.73;8.07;;;2.60;47.90;;;0.46;51.58;102382.91;8472001;27;20461;-80
2022/03/02 04:39:40;;;;;;;12.88;7.55;;;2.50;47.90;;;0.75;51.98;102422.72;8484550;27;20556;-80
2022/03/02 04:44:02;;;;;;;13.40;7.70;;;2.70;48.00;;;0.60;51.81;102401.97;8468068;27;20126;-79
2022/03/02 04:48:24;;;;;;;14.65;7.78;;;2.60;48.00;;;0.73;52.05;102419.28;8476109;27;20552;-79
2022/03/02 04:52:48;;;;;;;14.88;8.20;;;2.80;48.10;;;0.62;51.73;102400.25;8465952;27;20495;-79
2022/03/02 04:57:10;;;;;;;14.73;8.55;;;2.50;48.00;;;0.73;51.94;102403.84;8447824;27;20221;-79
2022/03/02 05:01:32;;;;;;;13.50;8.27;;;2.60;48.00;;;0.75;51.80;102397.00;8455571;27;20541;-79
2022/03/02 05:05:54;;;;;;;16.80;8.30;;;2.60;48.00;;;0.71;51.93;102390.09;8465489;27;20115;-79
2022/03/02 05:10:19;;;;;;;11.68;7.05;;;2.70;48.10;;;0.60;51.81;102360.84;8470170;27;20046;-79
2022/03/02 05:14:42;;;;;;;14.13;8.13;;;2.70;48.10;;;0.85;51.92;102400.56;8478593;27;20122;-80
2022/03/02 05:19:04;;;;;;;11.48;7.43;;;2.70;48.10;;;0.74;51.96;102374.72;8474778;27;20126;-80
2022/03/02 05:23:27;;;;;;;11.75;7.05;;;2.70;48.10;;;0.81;52.02;102391.06;8471317;27;20027;-79
2022/03/02 05:27:50;;;;;;;13.73;6.90;;;2.70;48.10;;;0.63;52.01;102364.28;8459342;27;20745;-79
2022/03/02 05:32:12;;;;;;;13.57;6.80;;;2.80;48.10;;;0.72;52.10;102373.81;8469121;27;20217;-80
2022/03/02 05:36:34;;;;;;;10.95;6.63;;;2.70;48.10;;;0.76;51.85;102387.59;8434796;27;20500;-80
2022/03/02 05:40:56;;;;;;;10.88;7.05;;;2.80;48.10;;;0.77;52.18;102372.19;8461876;27;20122;-80
2022/03/02 05:45:19;;;;;;;13.15;7.35;;;2.80;48.20;;;0.76;51.91;102380.75;8477500;27;20126;-81
2022/03/02 05:49:40;;;;;;;11.88;6.38;;;2.80;48.20;;;0.88;51.92;102398.88;8450130;27;20035;-80
2022/03/02 05:54:08;;;;;;;15.55;6.60;;;2.70;48.10;;;0.86;52.08;102395.44;8452877;27;20035;-80
2022/03/02 05:58:29;;;;;;;11.60;7.32;;;2.70;48.20;;;0.75;52.20;102365.28;8470894;27;20121;-79
2022/03/02 06:02:51;;;;;;;17.88;7.47;;;2.60;48.10;;;0.75;52.09;102366.13;8471396;27;20114;-79
2022/03/02 06:07:14;;;;;;;12.48;7.07;;;2.80;48.20;;;0.88;52.17;102398.88;8476310;27;20121;-81
2022/03/02 06:11:38;;;;;;;18.75;6.68;;;2.80;48.60;;;0.85;52.09;102403.13;8471934;27;20046;-79
2022/03/02 06:16:01;;;;;;;13.93;6.95;;;2.80;48.30;;;0.60;52.08;102350.56;8467163;27;20457;-81
2022/03/02 06:20:26;;;;;;;13.10;7.68;;;2.70;48.20;;;0.85;52.00;102400.56;8473137;27;20478;-81
2022/03/02 06:24:48;;;;;;;9.15;6.57;;;2.70;48.30;;;0.84;52.17;102409.97;8459820;27;20569;-84
2022/03/02 06:29:09;;;;;;;11.77;6.80;;;2.80;48.30;;;0.77;52.15;102395.31;8466755;27;20130;-80
2022/03/02 06:33:31;;;;;;;11.57;6.93;;;2.60;48.30;;;0.48;52.13;102353.81;8450576;27;20115;-80
2022/03/02 06:37:53;;;;;;;12.75;7.80;;;2.80;48.40;;;0.91;52.33;102423.75;8486405;27;20119;-81
2022/03/02 06:42:24;;;;;;;13.50;7.40;;;2.80;48.50;;;0.89;52.26;102425.44;8455397;27;20121;-79
2022/03/02 06:47:01;;;;;;;17.08;7.22;;;2.80;48.70;;;0.90;52.37;102416.06;8411371;27;20053;-80
2022/03/02 06:51:24;;;;;;;14.23;7.00;;;2.80;48.70;;;0.87;52.35;102411.72;8455820;27;20407;-79
2022/03/02 06:55:45;;;;;;;13.48;7.32;;;2.60;48.60;;;0.99;52.40;102431.56;8461628;27;20110;-79
2022/03/02 07:00:16;;;;;;;17.08;8.52;;;2.80;49.00;;;0.44;52.26;102337.50;8489147;27;20118;-79
2022/03/02 07:04:43;;;;;;;18.05;7.60;;;2.90;48.70;;;0.95;52.33;102412.69;8478341;27;20031;-80
2022/03/02 07:09:07;;;;;;;13.38;8.02;;;2.90;48.70;;;1.06;52.39;102423.09;8458868;27;20122;-80
2022/03/02 07:13:31;;;;;;;18.52;8.25;;;2.90;48.70;;;0.99;52.57;102406.72;8463571;27;20053;-79
2022/03/02 07:17:53;;;;;;;19.63;9.48;;;2.90;48.70;;;0.99;52.58;102398.13;8466896;27;20122;-80
2022/03/02 07:22:21;;;;;;;16.38;9.45;;;2.90;48.70;;;0.96;52.58;102383.53;8464631;27;20122;-80
2022/03/02 07:26:56;;;;;;;15.30;8.70;;;3.00;48.80;;;1.03;52.64;102381.91;8456140;27;20129;-80
2022/03/02 07:31:22;;;;;;;16.23;8.60;;;3.10;48.80;;;1.19;52.41;102398.34;8463326;27;20035;-80
2022/03/02 07:35:55;;;;;;;15.80;8.43;;;3.10;48.80;;;1.18;52.88;102386.34;8420911;27;20265;-79
2022/03/02 07:40:17;;;;;;;15.73;8.25;;;3.10;48.80;;;1.27;52.60;102392.47;8460469;27;20051;-79
2022/03/02 07:44:41;;;;;;;16.48;8.80;;;3.20;48.80;;;1.35;52.46;102391.66;8459810;27;20035;-79
2022/03/02 07:49:04;;;;;;;22.00;9.07;;;3.20;48.80;;;1.39;52.66;102391.72;8431495;28;20031;-79
2022/03/02 07:53:31;;;;;;;19.52;9.18;;;3.30;48.90;;;1.27;52.94;102368.41;8432622;28;20519;-79
2022/03/02 07:57:55;;;;;;;19.77;9.88;;;3.30;48.90;;;1.22;52.63;102345.22;8434616;28;20042;-79
2022/03/02 08:02:21;;;;;;;15.88;9.15;;;3.40;48.90;;;1.42;52.75;102362.56;8457007;28;20043;-79
2022/03/02 08:06:43;;;;;;;18.58;10.00;;;3.40;48.90;;;1.61;52.72;102395.34;8433151;28;20036;-79
2022/03/02 08:11:06;;;;;;;15.77;9.23;;;3.30;48.90;;;1.48;52.78;102362.59;8450346;27;20031;-79
2022/03/02 08:15:28;;;;;;;18.15;10.18;;;3.60;49.00;;;1.60;52.87;102365.31;8458831;27;20111;-79
2022/03/02 08:19:50;;;;;;;20.13;10.30;;;3.50;48.90;;;1.73;52.72;102374.00;8468636;27;20122;-79
2022/03/02 08:24:16;;;;;;;17.92;9.68;;;3.70;49.00;;;1.79;53.23;102357.72;8440470;27;20027;-80
2022/03/02 08:28:43;;;;;;;18.05;9.93;;;3.70;49.00;;;1.95;53.02;102378.47;8459103;27;20035;-79
2022/03/02 08:33:13;;;;;;;16.65;9.82;;;3.80;49.00;;;2.08;52.89;102376.84;8439901;27;20050;-79
2022/03/02 08:37:35;;;;;;;15.20;9.00;;;4.00;49.10;;;1.97;52.77;102342.38;8464020;27;20492;-78
2022/03/02 08:41:57;;;;;;;23.73;11.60;;;4.10;49.00;;;2.18;52.93;102346.81;8425267;27;20062;-77
2022/03/02 08:46:22;;;;;;;20.98;11.38;;;4.00;48.90;;;2.32;53.12;102341.72;8472820;27;20043;-79
2022/03/02 08:50:45;;;;;;;20.90;11.95;;;4.30;49.00;;;2.59;53.02;102359.94;8494859;27;20041;-79
2022/03/02 08:55:10;;;;;;;19.95;11.05;;;4.50;49.00;;;2.62;53.11;102344.47;8458085;27;20525;-80
2022/03/02 08:59:34;;;;;;;23.70;11.95;;;4.60;48.90;;;2.81;53.42;102353.13;8442491;27;20407;-80
2022/03/02 09:03:59;;;;;;;16.20;9.95;;;4.70;48.90;;;2.67;53.39;102292.88;8454220;27;20460;-80
2022/03/02 09:08:21;;;;;;;19.45;10.48;;;4.90;48.90;;;3.31;53.28;102354.09;8467076;27;20041;-80
2022/03/02 09:12:43;;;;;;;24.60;12.23;;;5.30;49.10;;;3.35;53.24;102300.72;8483398;27;20043;-81
2022/03/02 09:17:05;;;;;;;17.67;10.52;;;5.40;49.00;;;3.73;53.62;102314.50;8460667;27;20038;-80
2022/03/02 09:21:27;;;;;;;17.60;10.20;;;5.70;49.10;;;4.15;53.31;102343.69;8461019;27;20028;-80
2022/03/02 09:25:50;;;;;;;18.98;10.52;;;6.10;48.90;;;4.08;53.32;102282.56;8447922;27;20031;-78
2022/03/02 09:30:12;;;;;;;17.40;9.95;;;6.50;48.80;;;4.59;53.16;102322.00;8467441;27;20043;-80
2022/03/02 09:34:39;;;;;;;18.20;10.20;;;6.50;48.40;;;4.95;53.08;102337.34;8448611;27;20035;-79
2022/03/02 09:39:02;;;;;;;23.75;13.25;;;6.70;48.00;;;5.04;52.70;102301.03;8451682;27;20517;-79
2022/03/02 09:43:25;;;;;;;20.27;12.07;;;7.00;46.90;;;5.35;53.00;102312.06;8471601;27;20034;-83
2022/03/02 09:47:57;;;;;;;17.45;10.52;;;7.20;47.10;;;5.63;52.44;102314.41;8459373;27;20039;-78
2022/03/02 09:52:20;;;;;;;15.90;9.52;;;7.50;46.60;;;5.96;52.23;102326.19;8476851;27;20039;-78
2022/03/02 09:56:43;;;;;;;15.98;10.05;;;7.70;46.90;;;6.15;52.60;102314.75;8444500;27;20026;-78
2022/03/02 10:01:14;;;;;;;13.77;9.43;;;8.00;46.60;;;6.34;51.94;102318.00;8449574;27;20069;-78
2022/03/02 10:05:40;;;;;;;16.50;9.35;;;8.20;46.30;;;6.48;52.02;102323.03;8466016;27;20034;-78
2022/03/02 10:10:15;;;;;;;14.75;9.32;;;8.30;45.90;;;6.60;52.13;102328.06;8443437;27;20031;-78
2022/03/02 10:14:37;;;;;;;17.23;9.52;;;8.50;46.10;;;6.60;51.73;102315.09;8449373;27;20036;-77
2022/03/02 10:19:02;;;;;;;13.52;8.57;;;8.60;45.80;;;6.70;51.91;102312.34;8442270;27;20049;-77
2022/03/02 10:23:42;;;;;;;13.73;8.63;;;8.70;45.60;;;6.70;51.86;102289.00;8444913;27;20117;-79
2022/03/02 10:28:07;;;;;;;12.20;7.13;;;8.80;45.60;;;6.77;51.47;102280.25;8479287;27;20114;-77
2022/03/02 10:32:35;;;;;;;12.13;8.20;;;8.90;45.50;;;6.81;51.26;102268.97;8462577;27;20583;-78
2022/03/02 10:37:32;;;;;;;12.15;7.10;;;9.00;45.50;;;7.12;51.83;102310.03;8451207;27;20054;-82
2022/03/02 10:41:59;;;;;;;10.10;6.75;;;9.00;44.90;;;7.16;51.33;102288.34;8489078;27;20130;-78
2022/03/02 10:46:23;;;;;;;11.57;7.82;;;9.10;44.90;;;7.25;50.87;102277.78;8443623;27;20041;-77
2022/03/02 10:50:48;;;;;;;15.05;8.48;;;9.20;44.10;;;7.47;51.38;102279.13;8457820;27;20053;-78
2022/03/02 10:55:13;;;;;;;14.43;8.57;;;9.40;44.90;;;7.60;50.78;102271.13;8474844;27;20035;-78
2022/03/02 10:59:37;;;;;;;11.07;7.78;;;9.50;44.30;;;7.86;50.85;102281.06;8436393;27;20038;-79
2022/03/02 11:03:59;;;;;;;9.82;5.93;;;9.50;44.40;;;7.86;50.75;102249.88;8430631;27;20043;-77
2022/03/02 11:08:22;;;;;;;11.93;7.05;;;9.80;44.80;;;8.13;50.50;102279.69;8451980;27;20034;-79
2022/03/02 11:12:47;;;;;;;9.23;6.80;;;10.00;44.40;;;8.02;50.50;102234.78;8436021;27;20037;-79
2022/03/02 11:17:16;;;;;;;10.95;6.32;;;10.00;44.00;;;8.28;50.22;102268.09;8452509;27;20049;-77
2022/03/02 11:21:41;;;;;;;9.95;5.75;;;10.10;44.00;;;8.30;50.47;102241.16;8455155;27;20044;-78
2022/03/02 11:26:07;;;;;;;11.10;6.80;;;10.20;44.10;;;8.49;50.24;102233.81;8451182;27;20701;-79
2022/03/02 11:30:29;;;;;;;9.68;6.60;;;10.20;43.60;;;8.60;50.19;102230.97;8443827;27;20045;-79
2022/03/02 11:34:51;;;;;;;11.57;7.43;;;10.50;43.40;;;8.73;49.89;102227.22;8485734;27;20038;-79
2022/03/02 11:39:16;;;;;;;10.23;6.68;;;10.60;43.60;;;8.80;49.72;102228.78;8438940;27;20041;-80
2022/03/02 11:43:39;;;;;;;8.80;6.43;;;10.60;42.90;;;8.99;49.69;102247.44;8459800;27;20045;-79
2022/03/02 11:48:10;;;;;;;12.48;6.95;;;10.80;43.40;;;8.92;49.59;102200.72;8468957;27;20052;-80
2022/03/02 11:52:36;;;;;;;8.57;5.93;;;10.90;42.50;;;9.18;49.83;102223.50;8453917;27;20565;-80
2022/03/02 11:57:02;;;;;;;7.03;5.10;;;11.00;42.80;;;9.19;49.61;102207.84;8468878;27;20042;-78
2022/03/02 12:01:26;;;;;;;6.40;4.93;;;11.10;42.50;;;9.30;49.19;102204.97;8460011;27;20045;-78
2022/03/02 12:06:05;;;;;;;6.32;4.97;;;11.10;43.10;;;9.06;49.20;102134.31;8462964;27;20509;-79
2022/03/02 12:10:34;;;;;;;7.70;4.93;;;11.20;42.20;;;9.27;48.86;102151.16;8472798;27;20804;-79
2022/03/02 12:14:59;;;;;;;6.53;4.70;;;11.30;42.50;;;9.62;48.84;102188.47;8462351;27;20517;-79
2022/03/02 12:19:29;;;;;;;6.13;4.43;;;11.30;41.80;;;9.56;48.26;102161.69;8449708;27;20147;-79
2022/03/02 12:23:54;;;;;;;7.70;4.80;;;11.50;41.60;;;9.70;48.49;102170.00;8482546;27;20292;-79
2022/03/02 12:28:19;;;;;;;7.70;4.93;;;11.60;41.50;;;9.85;47.94;102173.91;8442122;27;20608;-79
2022/03/02 12:32:45;;;;;;;6.83;5.53;;;11.90;41.60;;;9.80;48.28;102155.75;8483196;27;20039;-78
2022/03/02 12:37:09;;;;;;;9.30;5.57;;;11.70;41.30;;;9.72;48.02;102132.53;8462095;27;20033;-78
2022/03/02 12:41:31;;;;;;;8.55;5.30;;;11.60;40.10;;;9.93;47.91;102162.34;8460938;27;20031;-78
2022/03/02 12:45:55;;;;;;;6.07;4.50;;;11.80;40.00;;;9.89;47.69;102149.44;8458250;27;20487;-78
2022/03/02 12:50:18;;;;;;;7.28;4.72;;;11.80;39.60;;;9.81;47.22;102128.78;8461926;27;20035;-80
2022/03/02 12:54:42;;;;;;;6.20;4.32;;;12.00;40.60;;;10.02;47.46;102147.31;8450740;27;20046;-80
2022/03/02 12:59:05;;;;;;;6.05;4.47;;;11.70;39.90;;;9.88;46.82;102125.13;8452220;27;20826;-79
2022/03/02 13:03:30;;;;;;;5.15;4.07;;;11.70;39.00;;;10.00;46.40;102136.06;8456918;27;20496;-79
2022/03/02 13:08:16;;;;;;;5.00;3.53;;;11.80;39.50;;;10.03;46.97;102139.44;8448789;27;20677;-82
2022/03/02 13:12:46;;;;;;;4.22;3.58;;;11.80;39.80;;;9.99;46.19;102124.78;8464665;27;20053;-79
2022/03/02 13:17:19;;;;;;;6.15;4.60;;;11.80;39.20;;;9.98;46.50;102125.69;8475524;27;20134;-77
2022/03/02 13:21:41;;;;;;;7.90;4.10;;;11.80;37.70;;;10.01;46.63;102122.97;8474487;27;20114;-79
2022/03/02 13:26:02;;;;;;;4.75;3.55;;;11.70;39.30;;;10.10;46.43;102130.53;8472683;27;20125;-78
2022/03/02 13:30:24;;;;;;;4.90;3.40;;;11.80;39.00;;;9.97;46.26;102100.50;8467970;27;20663;-77
2022/03/02 13:35:11;;;;;;;6.13;3.88;;;11.80;38.80;;;10.10;45.65;102124.44;8460087;27;20050;-78
2022/03/02 13:39:46;;;;;;;5.45;4.32;;;11.80;37.60;;;9.98;45.87;102096.97;8448191;27;20507;-79
2022/03/02 13:44:37;;;;;;;4.60;4.10;;;11.80;38.60;;;10.09;45.46;102117.53;8437562;27;20053;-78
2022/03/02 13:48:59;;;;;;;6.78;4.30;;;11.80;38.60;;;10.13;45.65;102099.13;8451777;27;20043;-78
2022/03/02 13:53:44;;;;;;;5.57;4.22;;;11.80;39.30;;;10.06;45.27;102092.38;8441698;27;20057;-79
2022/03/02 13:58:19;;;;;;;8.38;4.70;;;11.70;39.00;;;10.18;45.85;102098.97;8466507;27;20518;-78
2022/03/02 14:02:41;;;;;;;8.50;5.47;;;11.80;38.80;;;10.13;45.65;102093.91;8478651;27;20395;-78
2022/03/02 14:07:05;;;;;;;6.85;4.10;;;11.80;38.10;;;10.14;45.60;102077.31;8435882;27;20045;-79
2022/03/02 14:11:55;;;;;;;5.57;4.53;;;11.80;39.00;;;10.19;45.69;102083.25;8438363;27;20069;-78
2022/03/02 14:16:16;;;;;;;5.97;4.25;;;11.90;38.90;;;10.24;45.36;102092.72;8443275;27;20053;-79
2022/03/02 14:20:38;;;;;;;6.97;5.25;;;11.90;39.10;;;10.26;44.91;102091.75;8462412;27;20730;-79
2022/03/02 14:25:00;;;;;;;8.82;5.70;;;11.80;39.20;;;10.26;45.36;102085.66;8456612;27;20035;-79
2022/03/02 14:29:22;;;;;;;10.65;5.75;;;11.80;38.80;;;10.29;45.43;102083.84;8451993;27;20083;-79
2022/03/02 14:33:55;;;;;;;7.70;4.82;;;11.90;39.00;;;10.20;45.32;102060.59;8469954;27;20414;-79
2022/03/02 14:38:17;;;;;;;8.05;5.50;;;11.90;38.50;;;10.33;45.13;102066.31;8467737;27;20031;-79
2022/03/02 14:42:43;;;;;;;7.47;4.80;;;12.00;39.10;;;10.22;45.11;102037.91;8449500;27;20027;-79
2022/03/02 14:47:05;;;;;;;9.63;5.82;;;11.90;38.90;;;10.31;45.48;102047.25;8437395;27;20042;-78
2022/03/02 14:51:27;;;;;;;8.90;5.10;;;12.10;38.80;;;10.22;45.01;102034.47;8456370;27;20039;-78
2022/03/02 14:56:11;;;;;;;5.95;4.90;;;12.00;39.00;;;10.30;44.91;102041.16;8431003;27;20443;-78
2022/03/02 15:00:34;;;;;;;7.13;5.15;;;11.90;38.80;;;10.17;45.46;102019.78;8486923;27;20047;-78
2022/03/02 15:05:00;;;;;;;7.72;6.00;;;11.80;39.10;;;10.14;44.54;102014.66;8464824;27;20049;-78
2022/03/02 15:09:21;;;;;;;;;;;11.90;38.90;;;10.28;44.89;102021.22;8447498;27;20039;-78
2022/03/02 15:18:31;;;;;;;7.22;4.70;;;11.90;39.50;;;10.22;44.92;102027.47;8462947;27;20043;-79
2022/03/02 15:22:57;;;;;;;6.72;5.40;;;11.90;39.50;;;10.20;44.58;102022.28;8458235;27;20035;-79
2022/03/02 15:27:20;;;;;;;7.80;5.28;;;11.80;39.10;;;10.21;44.83;102020.56;8449751;27;20037;-80
2022/03/02 15:32:09;;;;;;;8.65;5.60;;;11.90;39.60;;;10.14;44.56;102011.22;8462279;27;20047;-78
2022/03/02 15:36:30;;;;;;;9.20;6.05;;;11.80;39.10;;;10.14;44.91;102013.81;8453235;27;20406;-79
2022/03/02 15:40:52;;;;;;;7.82;5.80;;;11.80;38.60;;;10.04;44.98;102010.66;8444189;27;20496;-80
2022/03/02 15:45:20;;;;;;;9.45;6.32;;;11.70;39.00;;;10.11;44.71;102017.38;8480928;27;20043;-79
2022/03/02 15:49:50;;;;;;;8.68;5.32;;;11.70;39.50;;;10.05;44.88;102004.53;8477831;28;20046;-81
2022/03/02 15:54:13;;;;;;;8.40;5.63;;;11.60;39.40;;;9.98;44.94;101997.81;8432064;28;20039;-79
2022/03/02 15:58:46;;;;;;;9.75;5.53;;;11.60;39.80;;;9.84;44.73;101985.22;8436946;28;20045;-79
2022/03/02 16:03:14;;;;;;;8.48;5.15;;;11.60;40.20;;;9.93;44.57;101995.34;8461897;28;20444;-79
2022/03/02 16:07:38;;;;;;;4.95;3.75;;;11.50;40.00;;;9.85;45.25;101981.69;8450040;27;20034;-79
2022/03/02 16:12:01;;;;;;;10.57;4.60;;;11.50;40.30;;;9.75;44.78;101982.91;8446284;28;20039;-81
2022/03/02 16:16:23;;;;;;;9.00;5.20;;;11.40;40.40;;;9.66;44.75;101989.22;8471164;28;20026;-85
2022/03/02 16:20:47;;;;;;;8.43;5.88;;;11.40;40.40;;;9.61;44.72;101987.66;8451410;27;20031;-79
2022/03/02 16:25:24;;;;;;;8.63;5.68;;;11.30;40.50;;;9.51;44.63;101993.19;8456620;27;20506;-80
2022/03/02 16:29:51;;;;;;;7.28;5.10;;;11.20;40.30;;;9.37;44.78;101982.31;8451521;27;20038;-79
2022/03/02 16:34:13;;;;;;;6.85;4.97;;;11.10;40.40;;;9.34;44.40;102000.63;8470073;27;20045;-79
2022/03/02 16:38:35;;;;;;;7.50;5.25;;;11.00;40.40;;;9.25;44.84;102006.97;8468848;27;20035;-81
2022/03/02 16:43:04;;;;;;;7.20;4.80;;;10.90;40.20;;;9.09;44.60;101996.13;8455297;27;20052;-83
2022/03/02 16:47:29;;;;;;;7.88;4.80;;;10.70;40.10;;;8.68;44.42;101947.81;8457379;27;20031;-80
2022/03/02 16:51:50;;;;;;;8.00;5.60;;;10.60;40.20;;;8.38;44.64;101924.28;8458224;27;20053;-79
2022/03/02 16:56:12;;;;;;;9.60;5.75;;;10.40;40.30;;;8.59;44.44;101968.91;8447029;27;20040;-79
2022/03/02 17:00:37;;;;;;;10.18;4.90;;;10.30;40.40;;;8.46;44.76;101977.94;8439897;27;20034;-80
2022/03/02 17:04:59;;;;;;;6.03;4.53;;;10.10;40.50;;;8.44;44.81;101998.78;8456831;27;20042;-80
2022/03/02 17:09:22;;;;;;;7.60;4.97;;;10.00;40.20;;;8.30;44.84;101998.25;8457991;27;20045;-80
2022/03/02 17:13:44;;;;;;;7.50;5.25;;;9.90;40.60;;;8.13;44.76;101985.69;8449912;27;20498;-80
2022/03/02 17:18:06;;;;;;;6.45;4.90;;;9.80;40.60;;;8.10;45.10;101996.13;8479079;27;20045;-80
2022/03/02 17:22:27;;;;;;;13.18;6.10;;;10.00;41.00;;;8.11;44.86;102016.06;8451496;27;20041;-80
2022/03/02 17:26:49;;;;;;;15.95;5.95;;;9.40;40.80;;;7.99;45.00;102017.19;8478628;27;20039;-79
2022/03/02 17:31:11;;;;;;;8.20;5.43;;;9.50;41.00;;;7.93;45.05;102014.75;8447630;27;20035;-80
2022/03/02 17:35:33;;;;;;;9.68;5.38;;;9.30;41.10;;;7.66;45.32;101983.28;8459687;27;20179;-80
2022/03/02 17:39:55;;;;;;;8.50;4.88;;;9.30;41.00;;;7.62;45.04;101983.41;8456315;27;20035;-80
2022/03/02 17:44:18;;;;;;;8.30;5.32;;;9.10;41.10;;;7.57;44.96;101990.47;8449041;27;20050;-80
2022/03/02 17:48:39;;;;;;;9.93;5.18;;;9.40;41.30;;;7.19;45.13;101940.19;8480228;27;20049;-79
2022/03/02 17:53:01;;;;;;;11.05;5.30;;;9.00;41.30;;;7.31;45.05;101968.47;8463667;27;20042;-79
2022/03/02 17:57:24;;;;;;;22.15;11.43;;;8.90;41.50;;;7.32;45.07;101994.44;8451230;27;20038;-80
2022/03/02 18:01:46;;;;;;;47.40;23.38;;;8.70;41.40;;;7.23;45.37;101993.78;8453586;27;20035;-81
2022/03/02 18:06:08;;;;;;;85.65;39.95;;;8.90;41.70;;;6.77;45.21;101937.56;8460688;27;20046;-80
2022/03/02 18:10:30;;;;;;;86.60;39.60;;;8.50;41.60;;;6.32;45.25;101880.47;8469132;27;20039;-80
2022/03/02 18:14:51;;;;;;;74.53;35.92;;;8.50;41.70;;;6.83;45.26;101977.25;8452682;27;20043;-80
2022/03/02 18:19:15;;;;;;;50.58;23.30;;;8.40;41.70;;;6.78;45.25;101984.28;8474325;27;20080;-79
2022/03/02 18:23:38;;;;;;;43.70;21.33;;;8.30;41.60;;;6.64;45.02;101974.16;8449945;27;20035;-80
2022/03/02 18:28:00;;;;;;;41.67;20.45;;;8.00;41.70;;;6.54;45.46;101969.16;8459392;27;20047;-80
2022/03/02 18:32:22;;;;;;;50.08;24.63;;;8.10;41.80;;;6.52;45.62;101987.34;8465432;27;20035;-80
2022/03/02 18:36:46;;;;;;;51.85;23.98;;;7.90;41.90;;;5.68;45.33;101861.72;8466740;27;20035;-80